createdAt,value
2017-10-30T00:01:15.138Z,101875.14
2017-10-30T00:03:17.589Z,101881.45
2017-10-30T00:05:20.050Z,101876.06
2017-10-30T00:07:22.484Z,101873.78
2017-10-30T00:09:24.926Z,101872.94
2017-10-30T00:11:27.402Z,101879.26
2017-10-30T00:13:29.838Z,101878.34
2017-10-30T00:15:32.283Z,101880.61
2017-10-30T00:17:34.834Z,101882.91
2017-10-30T00:19:37.288Z,101887.04
2017-10-30T00:21:39.759Z,101882.98
2017-10-30T00:23:42.231Z,101887.04
2017-10-30T00:25:44.706Z,101887.96
2017-10-30T00:27:47.181Z,101885.27
2017-10-30T00:29:49.660Z,101885.34
2017-10-30T00:31:52.110Z,101904.16
2017-10-30T00:33:54.587Z,101903.73
2017-10-30T00:35:57.046Z,101904.66
2017-10-30T00:37:59.528Z,101904.23
2017-10-30T00:40:01.997Z,101906.00
2017-10-30T00:42:04.504Z,101901.03
2017-10-30T00:44:06.941Z,101893.44
2017-10-30T00:46:09.384Z,101896.98
2017-10-30T00:48:11.851Z,101898.83
2017-10-30T00:50:14.284Z,101893.01
2017-10-30T00:52:16.821Z,101900.18
2017-10-30T00:54:19.290Z,101896.20
2017-10-30T00:56:21.734Z,101897.98
2017-10-30T00:58:24.164Z,101897.55
2017-10-30T01:00:26.700Z,101899.41
2017-10-30T01:02:29.149Z,101902.03
2017-10-30T01:04:31.590Z,101904.30
2017-10-30T01:06:34.061Z,101902.11
2017-10-30T01:08:36.508Z,101894.00
2017-10-30T01:10:38.979Z,101893.61
2017-10-30T01:12:41.528Z,101893.19
2017-10-30T01:14:43.962Z,101899.41
2017-10-30T01:16:46.403Z,101900.44
2017-10-30T01:18:48.864Z,101898.31
2017-10-30T01:20:51.314Z,101911.73
2017-10-30T01:22:53.869Z,101916.20
2017-10-30T01:24:56.442Z,101915.70
2017-10-30T01:26:58.914Z,101913.08
2017-10-30T01:29:01.354Z,101914.00
2017-10-30T01:31:03.845Z,101908.61
2017-10-30T01:33:06.316Z,101906.33
2017-10-30T01:35:08.786Z,101904.55
2017-10-30T01:37:11.241Z,101902.28
2017-10-30T01:39:13.733Z,101903.63
2017-10-30T01:41:16.202Z,101908.61
2017-10-30T01:43:18.673Z,101908.61
2017-10-30T01:45:21.143Z,101909.03
2017-10-30T01:47:23.600Z,101909.95
2017-10-30T01:49:26.068Z,101908.68
2017-10-30T01:51:28.513Z,101907.76
2017-10-30T01:53:31.014Z,101906.41
2017-10-30T01:55:33.469Z,101904.20
2017-10-30T01:57:35.900Z,101911.37
2017-10-30T01:59:38.340Z,101910.03
2017-10-30T02:01:40.821Z,101911.87
2017-10-30T02:03:43.258Z,101910.53
2017-10-30T02:05:45.688Z,101915.92
2017-10-30T02:07:48.145Z,101915.50
2017-10-30T02:09:50.635Z,101917.80
2017-10-30T02:11:53.073Z,101919.05
2017-10-30T02:13:55.620Z,101917.80
2017-10-30T02:15:58.091Z,101915.50
2017-10-30T02:18:00.537Z,101909.28
2017-10-30T02:20:03.002Z,101910.10
2017-10-30T02:22:05.501Z,101912.80
2017-10-30T02:24:07.970Z,101907.94
2017-10-30T02:26:10.425Z,101914.69
2017-10-30T02:28:12.856Z,101919.23
2017-10-30T02:30:15.288Z,101925.55
2017-10-30T02:32:17.752Z,101928.75
2017-10-30T02:34:20.213Z,101933.64
2017-10-30T02:36:22.687Z,101929.59
2017-10-30T02:38:25.157Z,101930.95
2017-10-30T02:40:27.613Z,101934.57
2017-10-30T02:42:30.129Z,101932.72
2017-10-30T02:44:32.674Z,101939.05
2017-10-30T02:46:35.118Z,101942.59
2017-10-30T02:48:37.557Z,101944.02
2017-10-30T02:50:40.079Z,101944.94
2017-10-30T02:52:42.665Z,101944.94
2017-10-30T02:54:45.100Z,101947.64
2017-10-30T02:56:47.593Z,101943.16
2017-10-30T02:58:50.111Z,101939.61
2017-10-30T03:00:52.637Z,101944.52
2017-10-30T03:02:55.124Z,101943.16
2017-10-30T03:04:57.565Z,101955.31
2017-10-30T03:07:00.006Z,101950.34
2017-10-30T03:09:02.459Z,101951.33
2017-10-30T03:11:04.996Z,101951.76
2017-10-30T03:13:07.434Z,101958.93
2017-10-30T03:15:09.906Z,101958.50
2017-10-30T03:17:12.346Z,101961.20
2017-10-30T03:19:14.975Z,101967.52
2017-10-30T03:21:17.545Z,101964.41
2017-10-30T03:23:19.982Z,101974.38
2017-10-30T03:25:22.494Z,101975.20
2017-10-30T03:27:24.997Z,101981.94
2017-10-30T03:29:27.436Z,101975.20
2017-10-30T03:31:29.876Z,101988.69
2017-10-30T03:33:32.367Z,101983.39
2017-10-30T03:35:34.814Z,101983.39
2017-10-30T03:37:37.302Z,101987.88
2017-10-30T03:39:39.877Z,101986.52
2017-10-30T03:41:42.317Z,101996.89
2017-10-30T03:43:44.822Z,101998.66
2017-10-30T03:45:47.306Z,101997.31
2017-10-30T03:47:49.859Z,101994.61
2017-10-30T03:49:52.331Z,102005.41
2017-10-30T03:51:54.800Z,102003.71
2017-10-30T03:53:57.241Z,102002.36
2017-10-30T03:55:59.685Z,102004.98
2017-10-30T03:58:02.165Z,102005.48
2017-10-30T04:00:04.685Z,102010.45
2017-10-30T04:02:07.121Z,102007.69
2017-10-30T04:04:09.600Z,102009.60
2017-10-30T04:06:12.095Z,102013.16
2017-10-30T04:08:14.566Z,102013.08
2017-10-30T04:10:17.048Z,102016.70
2017-10-30T04:12:19.483Z,102021.18
2017-10-30T04:14:21.915Z,102026.22
2017-10-30T04:16:24.396Z,102024.45
2017-10-30T04:18:26.829Z,102028.42
2017-10-30T04:20:29.493Z,102030.77
2017-10-30T04:22:31.968Z,102034.81
2017-10-30T04:24:34.428Z,102037.52
2017-10-30T04:26:36.913Z,102041.56
2017-10-30T04:28:39.471Z,102044.69
2017-10-30T04:30:41.926Z,102050.51
2017-10-30T04:32:44.376Z,102046.95
2017-10-30T04:34:46.887Z,102042.91
2017-10-30T04:36:49.340Z,102049.73
2017-10-30T04:38:51.806Z,102056.91
2017-10-30T04:40:54.301Z,102059.59
2017-10-30T04:42:56.736Z,102069.89
2017-10-30T04:44:59.637Z,102067.20
2017-10-30T04:47:02.129Z,102062.72
2017-10-30T04:49:04.608Z,102062.30
2017-10-30T04:51:07.147Z,102062.37
2017-10-30T04:53:09.736Z,102058.25
2017-10-30T04:55:12.171Z,102056.05
2017-10-30T04:57:14.673Z,102053.34
2017-10-30T04:59:17.154Z,102061.02
2017-10-30T05:01:19.607Z,102063.83
2017-10-30T05:03:22.049Z,102068.72
2017-10-30T05:05:24.535Z,102065.17
2017-10-30T05:07:26.965Z,102065.67
2017-10-30T05:09:29.408Z,102075.11
2017-10-30T05:11:31.891Z,102067.52
2017-10-30T05:13:34.338Z,102066.16
2017-10-30T05:15:36.802Z,102072.56
2017-10-30T05:17:39.371Z,102073.34
2017-10-30T05:19:41.804Z,102075.61
2017-10-30T05:21:44.257Z,102072.56
2017-10-30T05:23:46.748Z,102072.98
2017-10-30T05:25:49.204Z,102075.69
2017-10-30T05:27:51.652Z,102074.77
2017-10-30T05:29:54.185Z,102086.48
2017-10-30T05:31:56.626Z,102072.06
2017-10-30T05:33:59.060Z,102078.38
2017-10-30T05:36:01.521Z,102081.58
2017-10-30T05:38:03.959Z,102086.16
2017-10-30T05:40:06.405Z,102088.75
2017-10-30T05:42:08.865Z,102091.13
2017-10-30T05:44:11.306Z,102096.84
2017-10-30T05:46:13.763Z,102103.27
2017-10-30T05:48:16.318Z,102100.57
2017-10-30T05:50:18.749Z,102106.89
2017-10-30T05:52:21.192Z,102107.74
2017-10-30T05:54:23.686Z,102108.23
2017-10-30T05:56:26.203Z,102101.92
2017-10-30T05:58:28.640Z,102101.98
2017-10-30T06:00:31.098Z,102105.54
2017-10-30T06:02:33.618Z,102104.27
2017-10-30T06:04:36.065Z,102112.28
2017-10-30T06:06:38.525Z,102111.86
2017-10-30T06:08:40.960Z,102118.67
2017-10-30T06:10:43.513Z,102113.28
2017-10-30T06:12:45.983Z,102119.10
2017-10-30T06:14:48.443Z,102123.22
2017-10-30T06:16:50.934Z,102127.70
2017-10-30T06:18:53.390Z,102129.54
2017-10-30T06:20:55.837Z,102136.71
2017-10-30T06:22:58.277Z,102137.64
2017-10-30T06:25:01.953Z,102135.30
2017-10-30T06:27:04.412Z,102134.44
2017-10-30T06:29:06.946Z,102135.79
2017-10-30T06:31:09.420Z,102141.61
2017-10-30T06:33:11.891Z,102142.11
2017-10-30T06:35:14.341Z,102140.33
2017-10-30T06:37:16.817Z,102136.71
2017-10-30T06:39:19.260Z,102136.78
2017-10-30T06:41:21.696Z,102135.86
2017-10-30T06:43:24.168Z,102141.25
2017-10-30T06:45:26.605Z,102151.55
2017-10-30T06:47:29.074Z,102148.86
2017-10-30T06:49:31.549Z,102153.83
2017-10-30T06:51:33.990Z,102152.05
2017-10-30T06:53:36.426Z,102162.77
2017-10-30T06:55:38.887Z,102157.38
2017-10-30T06:57:41.316Z,102156.95
2017-10-30T06:59:43.816Z,102163.20
2017-10-30T07:01:46.321Z,102167.60
2017-10-30T07:03:48.837Z,102167.17
2017-10-30T07:05:51.314Z,102172.14
2017-10-30T07:07:53.778Z,102173.06
2017-10-30T07:09:56.217Z,102183.37
2017-10-30T07:11:58.660Z,102186.06
2017-10-30T07:14:01.114Z,102185.14
2017-10-30T07:16:03.569Z,102183.69
2017-10-30T07:18:06.055Z,102186.92
2017-10-30T07:20:08.511Z,102194.91
2017-10-30T07:22:10.944Z,102201.16
2017-10-30T07:24:13.381Z,102204.28
2017-10-30T07:26:15.911Z,102204.78
2017-10-30T07:28:18.360Z,102208.69
2017-10-30T07:30:20.808Z,102204.22
2017-10-30T07:32:23.276Z,102218.98
2017-10-30T07:34:25.833Z,102220.83
2017-10-30T07:36:28.377Z,102229.78
2017-10-30T07:38:30.844Z,102226.06
2017-10-30T07:40:33.284Z,102231.45
2017-10-30T07:42:35.719Z,102228.69
2017-10-30T07:44:38.193Z,102235.44
2017-10-30T07:46:40.740Z,102238.06
2017-10-30T07:48:43.197Z,102246.52
2017-10-30T07:50:45.680Z,102244.64
2017-10-30T07:52:48.123Z,102241.80
2017-10-30T07:54:50.612Z,102241.66
2017-10-30T07:56:53.161Z,102247.81
2017-10-30T07:58:55.598Z,102242.70
2017-10-30T08:00:58.043Z,102248.52
2017-10-30T08:03:00.497Z,102254.61
2017-10-30T08:05:03.044Z,102255.39
2017-10-30T08:07:05.517Z,102252.16
2017-10-30T08:09:07.991Z,102252.95
2017-10-30T08:11:10.461Z,102260.37
2017-10-30T08:13:12.949Z,102254.91
2017-10-30T08:15:16.620Z,102253.55
2017-10-30T08:17:19.128Z,102255.19
2017-10-30T08:19:21.567Z,102264.96
2017-10-30T08:21:24.148Z,102259.78
2017-10-30T08:23:26.597Z,102262.73
2017-10-30T08:25:29.165Z,102264.87
2017-10-30T08:27:31.640Z,102254.39
2017-10-30T08:29:34.087Z,102261.36
2017-10-30T08:31:36.525Z,102259.52
2017-10-30T08:33:38.993Z,102263.78
2017-10-30T08:35:41.475Z,102268.08
2017-10-30T08:37:43.925Z,102263.46
2017-10-30T08:39:46.425Z,102260.09
2017-10-30T08:41:48.873Z,102267.63
2017-10-30T08:43:51.314Z,102268.80
2017-10-30T08:45:53.848Z,102266.39
2017-10-30T08:47:56.288Z,102264.94
2017-10-30T08:49:58.727Z,102265.72
2017-10-30T08:52:01.201Z,102268.28
2017-10-30T08:54:03.646Z,102271.73
2017-10-30T08:56:06.090Z,102275.64
2017-10-30T08:58:09.150Z,102273.19
2017-10-30T09:00:11.750Z,102276.60
2017-10-30T09:02:14.272Z,102277.84
2017-10-30T09:04:16.750Z,102280.91
2017-10-30T09:06:19.214Z,102284.81
2017-10-30T09:08:21.660Z,102284.21
2017-10-30T09:10:24.859Z,102280.94
2017-10-30T09:12:27.301Z,102282.22
2017-10-30T09:14:29.771Z,102283.40
2017-10-30T09:16:32.354Z,102281.98
2017-10-30T09:18:34.837Z,102286.39
2017-10-30T09:20:37.281Z,102282.59
2017-10-30T09:22:39.883Z,102291.05
2017-10-30T09:24:42.322Z,102289.52
2017-10-30T09:26:44.856Z,102294.78
2017-10-30T09:28:47.636Z,102294.71
2017-10-30T09:30:50.085Z,102292.33
2017-10-30T09:32:52.552Z,102296.67
2017-10-30T09:34:55.050Z,102294.39
2017-10-30T09:36:57.491Z,102296.06
2017-10-30T09:39:00.011Z,102296.42
2017-10-30T09:41:02.514Z,102302.11
2017-10-30T09:43:04.949Z,102294.75
2017-10-30T09:45:07.402Z,102291.05
2017-10-30T09:47:09.876Z,102290.13
2017-10-30T09:49:10.789Z,102288.11
2017-10-30T09:51:11.688Z,102293.87
2017-10-30T09:53:12.554Z,102291.91
2017-10-30T09:55:13.389Z,102293.62
2017-10-30T09:57:14.245Z,102295.25
2017-10-30T09:59:15.097Z,102299.70
2017-10-30T10:01:15.958Z,102305.46
2017-10-30T10:03:16.788Z,102307.91
2017-10-30T10:05:17.689Z,102308.70
2017-10-30T10:07:18.552Z,102313.53
2017-10-30T10:09:19.403Z,102316.23
2017-10-30T10:11:20.316Z,102317.91
2017-10-30T10:13:21.180Z,102321.89
2017-10-30T10:15:22.102Z,102329.86
2017-10-30T10:17:23.004Z,102323.95
2017-10-30T10:19:23.847Z,102329.25
2017-10-30T10:21:24.706Z,102331.88
2017-10-30T10:23:25.565Z,102324.63
2017-10-30T10:25:26.392Z,102331.31
2017-10-30T10:27:27.386Z,102332.17
2017-10-30T10:29:28.365Z,102326.23
2017-10-30T10:31:29.225Z,102334.20
2017-10-30T10:33:30.059Z,102328.86
2017-10-30T10:35:30.968Z,102334.20
2017-10-30T10:37:31.873Z,102335.91
2017-10-30T10:39:32.727Z,102333.09
2017-10-30T10:41:33.611Z,102330.32
2017-10-30T10:43:34.448Z,102333.95
2017-10-30T10:45:35.304Z,102325.70
2017-10-30T10:47:36.413Z,102324.77
2017-10-30T10:49:37.269Z,102326.45
2017-10-30T10:51:38.085Z,102333.62
2017-10-30T10:53:38.968Z,102326.80
2017-10-30T10:55:39.808Z,102334.38
2017-10-30T10:57:40.649Z,102328.47
2017-10-30T10:59:41.576Z,102327.44
2017-10-30T11:01:42.413Z,102329.57
2017-10-30T11:03:43.274Z,102323.56
2017-10-30T11:05:44.137Z,102334.80
2017-10-30T11:07:45.012Z,102326.19
2017-10-30T11:09:45.845Z,102338.36
2017-10-30T11:11:46.716Z,102335.08
2017-10-30T11:13:47.639Z,102331.03
2017-10-30T11:15:48.487Z,102334.91
2017-10-30T11:17:49.462Z,102338.47
2017-10-30T11:19:50.340Z,102337.11
2017-10-30T11:21:51.177Z,102340.95
2017-10-30T11:23:52.068Z,102343.13
2017-10-30T11:25:52.916Z,102337.57
2017-10-30T11:27:53.780Z,102338.42
2017-10-30T11:29:54.770Z,102333.87
2017-10-30T11:31:55.617Z,102342.55
2017-10-30T11:33:56.464Z,102337.00
2017-10-30T11:35:57.442Z,102337.75
2017-10-30T11:37:58.344Z,102336.83
2017-10-30T11:39:59.176Z,102344.94
2017-10-30T11:42:00.056Z,102351.70
2017-10-30T11:44:00.900Z,102352.20
2017-10-30T11:46:01.759Z,102354.05
2017-10-30T11:48:02.659Z,102353.22
2017-10-30T11:50:03.497Z,102355.50
2017-10-30T11:52:04.330Z,102356.00
2017-10-30T11:54:05.209Z,102352.52
2017-10-30T11:56:06.028Z,102353.02
2017-10-30T11:58:06.862Z,102357.57
2017-10-30T12:00:07.736Z,102349.98
2017-10-30T12:02:08.561Z,102358.17
2017-10-30T12:04:09.409Z,102355.11
2017-10-30T12:06:10.377Z,102356.97
2017-10-30T12:08:11.241Z,102348.95
2017-10-30T12:10:12.067Z,102353.58
2017-10-30T12:12:12.992Z,102354.51
2017-10-30T12:14:13.830Z,102355.00
2017-10-30T12:16:14.660Z,102358.56
2017-10-30T12:18:15.533Z,102359.56
2017-10-30T12:20:16.373Z,102358.70
2017-10-30T12:22:17.277Z,102362.77
2017-10-30T12:24:18.137Z,102358.70
2017-10-30T12:26:19.038Z,102372.22
2017-10-30T12:28:19.937Z,102357.88
2017-10-30T12:30:20.824Z,102360.05
2017-10-30T12:32:21.838Z,102359.23
2017-10-30T12:34:22.726Z,102353.41
2017-10-30T12:36:23.593Z,102362.02
2017-10-30T12:38:24.541Z,102354.11
2017-10-30T12:40:25.495Z,102355.97
2017-10-30T12:42:26.355Z,102353.33
2017-10-30T12:44:27.185Z,102356.53
2017-10-30T12:46:29.040Z,102356.53
2017-10-30T12:48:29.940Z,102355.72
2017-10-30T12:50:30.789Z,102355.72
2017-10-30T12:52:31.697Z,102358.42
2017-10-30T12:54:32.577Z,102353.41
2017-10-30T12:56:33.437Z,102352.05
2017-10-30T12:58:34.381Z,102352.91
2017-10-30T13:00:35.496Z,102356.53
2017-10-30T13:02:36.353Z,102354.26
2017-10-30T13:04:37.445Z,102356.97
2017-10-30T13:06:38.341Z,102356.11
2017-10-30T13:08:39.245Z,102354.36
2017-10-30T13:10:41.132Z,102355.19
2017-10-30T13:12:42.099Z,102356.11
2017-10-30T13:14:43.005Z,102361.52
2017-10-30T13:16:43.949Z,102359.66
2017-10-30T13:18:45.014Z,102360.59
2017-10-30T13:20:45.878Z,102361.13
2017-10-30T13:22:46.731Z,102365.92
2017-10-30T13:24:47.704Z,102368.28
2017-10-30T13:26:48.547Z,102362.37
2017-10-30T13:28:49.506Z,102360.09
2017-10-30T13:30:50.508Z,102364.65
2017-10-30T13:32:51.380Z,102361.94
2017-10-30T13:34:52.368Z,102360.16
2017-10-30T13:36:53.335Z,102362.97
2017-10-30T13:38:54.149Z,102353.08
2017-10-30T13:40:55.010Z,102356.71
2017-10-30T13:42:55.879Z,102359.91
2017-10-30T13:44:56.822Z,102355.93
2017-10-30T13:46:57.724Z,102357.71
2017-10-30T13:48:58.615Z,102357.71
2017-10-30T13:50:59.500Z,102349.59
2017-10-30T13:53:01.428Z,102346.05
2017-10-30T13:55:02.281Z,102350.52
2017-10-30T13:57:03.122Z,102355.61
2017-10-30T13:59:04.056Z,102353.73
2017-10-30T14:01:04.911Z,102356.43
2017-10-30T14:03:05.735Z,102361.02
2017-10-30T14:05:06.569Z,102359.23
2017-10-30T14:07:07.481Z,102355.25
2017-10-30T14:09:08.393Z,102360.23
2017-10-30T14:11:09.231Z,102360.23
2017-10-30T14:13:10.152Z,102360.23
2017-10-30T14:15:11.061Z,102358.53
2017-10-30T14:17:12.962Z,102358.10
2017-10-30T14:19:13.850Z,102361.23
2017-10-30T14:21:14.712Z,102357.67
2017-10-30T14:23:15.538Z,102361.30
2017-10-30T14:25:16.441Z,102365.78
2017-10-30T14:27:17.284Z,102364.00
2017-10-30T14:29:18.294Z,102363.51
2017-10-30T14:31:19.160Z,102362.27
2017-10-30T14:33:19.996Z,102361.30
2017-10-30T14:35:20.897Z,102356.00
2017-10-30T14:37:21.796Z,102358.77
2017-10-30T14:39:22.690Z,102361.05
2017-10-30T14:41:23.530Z,102358.81
2017-10-30T14:43:24.441Z,102361.59
2017-10-30T14:45:25.324Z,102363.97
2017-10-30T14:47:26.177Z,102365.89
2017-10-30T14:49:27.054Z,102357.95
2017-10-30T14:51:27.915Z,102354.89
2017-10-30T14:53:28.752Z,102351.41
2017-10-30T14:55:29.625Z,102356.50
2017-10-30T14:57:30.480Z,102363.33
2017-10-30T14:59:31.336Z,102360.77
2017-10-30T15:01:32.240Z,102364.99
2017-10-30T15:03:33.113Z,102361.51
2017-10-30T15:05:33.981Z,102358.87
2017-10-30T15:07:34.857Z,102354.14
2017-10-30T15:09:35.681Z,102360.55
2017-10-30T15:11:36.574Z,102367.38
2017-10-30T15:13:37.455Z,102364.84
2017-10-30T15:15:38.373Z,102368.54
2017-10-30T15:17:39.203Z,102361.96
2017-10-30T15:19:40.091Z,102371.48
2017-10-30T15:21:40.972Z,102360.00
2017-10-30T15:23:42.064Z,102374.50
2017-10-30T15:25:42.996Z,102378.63
2017-10-30T15:27:43.864Z,102379.23
2017-10-30T15:29:44.943Z,102382.00
2017-10-30T15:31:45.817Z,102384.42
2017-10-30T15:33:46.775Z,102379.02
2017-10-30T15:35:47.616Z,102382.74
2017-10-30T15:37:48.542Z,102388.71
2017-10-30T15:39:49.450Z,102383.98
2017-10-30T15:41:50.325Z,102384.48
2017-10-30T15:43:51.192Z,102387.67
2017-10-30T15:45:52.054Z,102394.08
2017-10-30T15:47:52.905Z,102389.70
2017-10-30T15:49:53.833Z,102390.27
2017-10-30T15:51:54.676Z,102393.46
2017-10-30T15:53:55.523Z,102390.94
2017-10-30T15:55:56.441Z,102398.75
2017-10-30T15:57:57.308Z,102397.57
2017-10-30T15:59:58.156Z,102392.31
2017-10-30T16:01:59.042Z,102393.66
2017-10-30T16:03:59.922Z,102397.35
2017-10-30T16:06:00.784Z,102392.87
2017-10-30T16:08:01.644Z,102397.84
2017-10-30T16:10:02.479Z,102392.13
2017-10-30T16:12:03.427Z,102402.00
2017-10-30T16:14:04.286Z,102404.60
2017-10-30T16:16:05.139Z,102402.86
2017-10-30T16:18:06.053Z,102405.56
2017-10-30T16:20:06.992Z,102410.11
2017-10-30T16:22:07.838Z,102411.89
2017-10-30T16:24:08.745Z,102409.61
2017-10-30T16:26:09.642Z,102415.02
2017-10-30T16:28:10.504Z,102417.28
2017-10-30T16:30:11.465Z,102422.16
2017-10-30T16:32:12.355Z,102413.66
2017-10-30T16:34:13.200Z,102422.16
2017-10-30T16:36:14.137Z,102418.64
2017-10-30T16:38:15.050Z,102418.53
2017-10-30T16:40:15.949Z,102422.09
2017-10-30T16:42:16.847Z,102426.57
2017-10-30T16:44:17.744Z,102422.87
2017-10-30T16:46:18.601Z,102425.08
2017-10-30T16:48:19.461Z,102422.80
2017-10-30T16:50:20.344Z,102426.33
2017-10-30T16:52:21.172Z,102424.05
2017-10-30T16:54:22.073Z,102425.83
2017-10-30T16:56:22.977Z,102420.78
2017-10-30T16:58:23.889Z,102424.34
2017-10-30T17:00:24.880Z,102423.42
2017-10-30T17:02:25.759Z,102421.64
2017-10-30T17:04:26.598Z,102420.72
2017-10-30T17:06:27.428Z,102423.48
2017-10-30T17:08:28.296Z,102420.78
2017-10-30T17:10:29.156Z,102420.86
2017-10-30T17:12:30.237Z,102424.05
2017-10-30T17:14:31.132Z,102420.53
2017-10-30T17:16:32.065Z,102412.92
2017-10-30T17:18:32.948Z,102417.47
2017-10-30T17:20:33.835Z,102417.11
2017-10-30T17:22:34.668Z,102413.48
2017-10-30T17:24:35.501Z,102413.23
2017-10-30T17:26:36.369Z,102417.19
2017-10-30T17:28:37.192Z,102425.45
2017-10-30T17:30:38.241Z,102414.16
2017-10-30T17:32:39.122Z,102414.23
2017-10-30T17:34:39.940Z,102421.05
2017-10-30T17:36:40.793Z,102420.63
2017-10-30T17:38:41.718Z,102420.63
2017-10-30T17:40:42.585Z,102422.05
2017-10-30T17:42:43.522Z,102423.92
2017-10-30T17:44:44.389Z,102427.13
2017-10-30T17:46:45.260Z,102432.95
2017-10-30T17:48:46.097Z,102440.20
2017-10-30T17:50:46.971Z,102435.30
2017-10-30T17:52:47.805Z,102434.01
2017-10-30T17:54:48.773Z,102434.01
2017-10-30T17:56:49.633Z,102438.12
2017-10-30T17:58:50.473Z,102443.96
2017-10-30T18:00:51.351Z,102444.55
2017-10-30T18:02:52.209Z,102440.94
2017-10-30T18:04:53.041Z,102435.10
2017-10-30T18:06:53.869Z,102437.45
2017-10-30T18:08:54.760Z,102435.67
2017-10-30T18:10:55.600Z,102439.72
2017-10-30T18:12:56.481Z,102447.46
2017-10-30T18:14:57.571Z,102438.86
2017-10-30T18:16:58.399Z,102451.13
2017-10-30T18:18:59.231Z,102441.67
2017-10-30T18:21:00.105Z,102445.86
2017-10-30T18:23:00.968Z,102449.41
2017-10-30T18:25:01.829Z,102460.71
2017-10-30T18:27:02.709Z,102462.55
2017-10-30T18:29:03.536Z,102460.78
2017-10-30T18:31:04.629Z,102463.16
2017-10-30T18:33:05.520Z,102461.38
2017-10-30T18:35:06.432Z,102461.38
2017-10-30T18:37:07.305Z,102460.52
2017-10-30T18:39:08.219Z,102461.94
2017-10-30T18:41:09.073Z,102463.29
2017-10-30T18:43:09.926Z,102468.76
2017-10-30T18:45:10.907Z,102470.17
2017-10-30T18:47:11.806Z,102473.30
2017-10-30T18:49:12.677Z,102477.45
2017-10-30T18:51:13.576Z,102478.38
2017-10-30T18:53:14.409Z,102482.92
2017-10-30T18:55:15.237Z,102485.56
2017-10-30T18:57:16.189Z,102486.98
2017-10-30T18:59:17.033Z,102486.05
2017-10-30T19:01:17.856Z,102484.34
2017-10-30T19:03:18.786Z,102490.24
2017-10-30T19:05:19.645Z,102492.45
2017-10-30T19:07:20.493Z,102488.03
2017-10-30T19:09:21.364Z,102493.02
2017-10-30T19:11:22.196Z,102492.69
2017-10-30T19:13:23.069Z,102497.16
2017-10-30T19:15:23.930Z,102499.00
2017-10-30T19:17:24.781Z,102496.38
2017-10-30T19:19:25.657Z,102496.44
2017-10-30T19:21:26.545Z,102492.49
2017-10-30T19:23:27.406Z,102497.36
2017-10-30T19:25:28.224Z,102495.59
2017-10-30T19:27:29.102Z,102501.94
2017-10-30T19:29:29.940Z,102494.47
2017-10-30T19:31:31.009Z,102491.28
2017-10-30T19:33:31.885Z,102502.58
2017-10-30T19:35:32.725Z,102495.39
2017-10-30T19:37:33.568Z,102494.11
2017-10-30T19:39:34.561Z,102492.37
2017-10-30T19:41:36.153Z,102492.37
2017-10-30T19:43:37.274Z,102485.62
2017-10-30T19:45:38.202Z,102492.01
2017-10-30T19:47:39.329Z,102492.44
2017-10-30T19:49:40.912Z,102492.93
2017-10-30T19:51:41.952Z,102494.77
2017-10-30T19:53:42.785Z,102491.16
2017-10-30T19:55:43.610Z,102496.55
2017-10-30T19:57:44.613Z,102498.39
2017-10-30T19:59:45.463Z,102498.46
2017-10-30T20:01:47.136Z,102493.48
2017-10-30T20:03:48.072Z,102489.94
2017-10-30T20:05:55.073Z,102499.88
2017-10-30T20:07:56.807Z,102494.05
2017-10-30T20:10:03.912Z,102497.67
2017-10-30T20:12:10.806Z,102494.12
2017-10-30T20:14:11.644Z,102496.39
2017-10-30T20:16:12.521Z,102495.97
2017-10-30T20:18:13.352Z,102494.19
2017-10-30T20:20:14.200Z,102490.14
2017-10-30T20:22:15.061Z,102495.11
2017-10-30T20:24:15.896Z,102499.23
2017-10-30T20:26:16.725Z,102504.23
2017-10-30T20:28:17.606Z,102502.36
2017-10-30T20:30:18.434Z,102505.98
2017-10-30T20:32:19.421Z,102515.42
2017-10-30T20:34:20.303Z,102510.55
2017-10-30T20:36:21.155Z,102509.27
2017-10-30T20:38:21.990Z,102512.83
2017-10-30T20:40:22.841Z,102509.70
2017-10-30T20:42:23.679Z,102517.86
2017-10-30T20:44:24.525Z,102514.73
2017-10-30T20:46:25.447Z,102519.22
2017-10-30T20:48:26.293Z,102531.43
2017-10-30T20:50:27.149Z,102525.61
2017-10-30T20:52:28.036Z,102531.00
2017-10-30T20:54:28.893Z,102527.38
2017-10-30T20:56:29.800Z,102533.70
2017-10-30T20:58:30.648Z,102534.06
2017-10-30T21:00:31.493Z,102521.55
2017-10-30T21:02:32.318Z,102518.00
2017-10-30T21:04:33.205Z,102517.50
2017-10-30T21:06:35.004Z,102523.83
2017-10-30T21:08:35.886Z,102529.33
2017-10-30T21:10:36.765Z,102526.62
2017-10-30T21:12:37.682Z,102529.33
2017-10-30T21:14:38.559Z,102524.84
2017-10-30T21:16:39.450Z,102523.56
2017-10-30T21:18:40.289Z,102525.34
2017-10-30T21:20:41.224Z,102531.23
2017-10-30T21:22:42.075Z,102531.66
2017-10-30T21:24:42.921Z,102526.83
2017-10-30T21:26:43.765Z,102529.95
2017-10-30T21:28:44.619Z,102532.22
2017-10-30T21:30:45.448Z,102528.17
2017-10-30T21:32:46.496Z,102525.05
2017-10-30T21:34:47.350Z,102529.20
2017-10-30T21:36:48.186Z,102532.33
2017-10-30T21:38:49.048Z,102525.64
2017-10-30T21:40:50.012Z,102528.77
2017-10-30T21:42:50.843Z,102526.50
2017-10-30T21:44:51.683Z,102530.61
2017-10-30T21:46:52.542Z,102527.05
2017-10-30T21:48:53.384Z,102526.56
2017-10-30T21:50:54.216Z,102523.01
2017-10-30T21:52:55.073Z,102521.23
2017-10-30T21:54:55.914Z,102514.48
2017-10-30T21:56:56.776Z,102517.67
2017-10-30T21:58:57.625Z,102521.73
2017-10-30T22:00:58.452Z,102521.73
2017-10-30T22:02:59.280Z,102520.80
2017-10-30T22:05:00.141Z,102509.15
2017-10-30T22:07:00.972Z,102515.05
2017-10-30T22:09:01.834Z,102518.59
2017-10-30T22:11:02.677Z,102523.57
2017-10-30T22:13:03.540Z,102516.82
2017-10-30T22:15:04.411Z,102525.02
2017-10-30T22:17:05.274Z,102521.80
2017-10-30T22:19:06.112Z,102519.62
2017-10-30T22:21:06.941Z,102519.62
2017-10-30T22:23:07.789Z,102516.98
2017-10-30T22:25:08.615Z,102522.38
2017-10-30T22:27:09.481Z,102517.97
2017-10-30T22:29:10.338Z,102518.89
2017-10-30T22:31:11.176Z,102516.20
2017-10-30T22:33:12.274Z,102513.07
2017-10-30T22:35:13.140Z,102512.64
2017-10-30T22:37:13.990Z,102507.77
2017-10-30T22:39:14.819Z,102514.91
2017-10-30T22:41:15.692Z,102505.99
2017-10-30T22:43:16.528Z,102515.02
2017-10-30T22:45:17.364Z,102517.28
2017-10-30T22:47:18.228Z,102519.98
2017-10-30T22:49:19.053Z,102525.38
2017-10-30T22:51:19.892Z,102521.77
2017-10-30T22:53:20.736Z,102524.46
2017-10-30T22:55:21.569Z,102519.06
2017-10-30T22:57:22.426Z,102513.23
2017-10-30T22:59:23.281Z,102513.73
2017-10-30T23:01:24.096Z,102518.63
2017-10-30T23:03:24.928Z,102516.86
2017-10-30T23:05:25.789Z,102516.00
2017-10-30T23:07:26.617Z,102511.95